sensor_id;sensor_type;location;lat;lon;timestamp;P1;durP1;ratioP1;P2;durP2;ratioP2
51238;SDS011;38154;47.548;18.828;2022-09-01T00:02:06;4.28;;;2.42;;
51238;SDS011;38154;47.548;18.828;2022-09-01T00:04:36;4.60;;;2.30;;
51238;SDS011;38154;47.548;18.828;2022-09-01T00:07:04;5.30;;;3.00;;
51238;SDS011;38154;47.548;18.828;2022-09-01T00:09:31;6.68;;;3.00;;
51238;SDS011;38154;47.548;18.828;2022-09-01T00:11:57;3.20;;;2.60;;
51238;SDS011;38154;47.548;18.828;2022-09-01T00:14:24;2.28;;;1.85;;
51238;SDS011;38154;47.548;18.828;2022-09-01T00:16:52;2.75;;;1.90;;
51238;SDS011;38154;47.548;18.828;2022-09-01T00:21:45;3.50;;;2.28;;
51238;SDS011;38154;47.548;18.828;2022-09-01T00:24:13;5.47;;;2.60;;
51238;SDS011;38154;47.548;18.828;2022-09-01T00:26:40;3.15;;;1.90;;
51238;SDS011;38154;47.548;18.828;2022-09-01T00:29:06;3.17;;;2.40;;
51238;SDS011;38154;47.548;18.828;2022-09-01T00:31:32;4.40;;;2.47;;
51238;SDS011;38154;47.548;18.828;2022-09-01T00:36:25;3.87;;;2.35;;
51238;SDS011;38154;47.548;18.828;2022-09-01T00:38:51;3.95;;;2.55;;
51238;SDS011;38154;47.548;18.828;2022-09-01T00:41:18;3.93;;;2.37;;
51238;SDS011;38154;47.548;18.828;2022-09-01T00:46:16;3.90;;;2.25;;
51238;SDS011;38154;47.548;18.828;2022-09-01T00:48:44;5.20;;;2.35;;
51238;SDS011;38154;47.548;18.828;2022-09-01T00:51:13;5.55;;;2.42;;
51238;SDS011;38154;47.548;18.828;2022-09-01T00:53:40;2.92;;;2.20;;
51238;SDS011;38154;47.548;18.828;2022-09-01T00:56:08;3.05;;;2.00;;
51238;SDS011;38154;47.548;18.828;2022-09-01T00:58:35;1.80;;;1.50;;
51238;SDS011;38154;47.548;18.828;2022-09-01T01:01:02;2.00;;;1.67;;
51238;SDS011;38154;47.548;18.828;2022-09-01T01:03:29;2.42;;;1.30;;
51238;SDS011;38154;47.548;18.828;2022-09-01T01:05:56;1.40;;;1.30;;
51238;SDS011;38154;47.548;18.828;2022-09-01T01:08:27;1.35;;;0.95;;
51238;SDS011;38154;47.548;18.828;2022-09-01T01:11:00;1.30;;;1.00;;
51238;SDS011;38154;47.548;18.828;2022-09-01T01:13:45;2.25;;;1.58;;
51238;SDS011;38154;47.548;18.828;2022-09-01T01:16:14;8.68;;;2.12;;
51238;SDS011;38154;47.548;18.828;2022-09-01T01:18:41;3.35;;;2.08;;
51238;SDS011;38154;47.548;18.828;2022-09-01T01:21:08;5.60;;;1.90;;
51238;SDS011;38154;47.548;18.828;2022-09-01T01:26:44;1.40;;;1.17;;
51238;SDS011;38154;47.548;18.828;2022-09-01T01:29:11;5.30;;;1.42;;
51238;SDS011;38154;47.548;18.828;2022-09-01T01:31:37;3.35;;;1.50;;
51238;SDS011;38154;47.548;18.828;2022-09-01T01:34:03;1.27;;;1.03;;
51238;SDS011;38154;47.548;18.828;2022-09-01T01:36:33;1.42;;;1.10;;
51238;SDS011;38154;47.548;18.828;2022-09-01T01:39:04;2.40;;;1.05;;
51238;SDS011;38154;47.548;18.828;2022-09-01T01:41:34;2.20;;;1.33;;
51238;SDS011;38154;47.548;18.828;2022-09-01T01:44:06;1.67;;;1.15;;
51238;SDS011;38154;47.548;18.828;2022-09-01T01:46:33;1.20;;;1.10;;
51238;SDS011;38154;47.548;18.828;2022-09-01T01:49:01;4.20;;;1.40;;
51238;SDS011;38154;47.548;18.828;2022-09-01T01:51:28;6.87;;;1.62;;
51238;SDS011;38154;47.548;18.828;2022-09-01T01:53:56;1.83;;;1.20;;
51238;SDS011;38154;47.548;18.828;2022-09-01T01:56:30;1.20;;;0.70;;
51238;SDS011;38154;47.548;18.828;2022-09-01T01:58:58;1.10;;;0.88;;
51238;SDS011;38154;47.548;18.828;2022-09-01T02:01:27;1.30;;;1.00;;
51238;SDS011;38154;47.548;18.828;2022-09-01T02:03:56;1.80;;;1.25;;
51238;SDS011;38154;47.548;18.828;2022-09-01T02:06:25;0.68;;;0.68;;
51238;SDS011;38154;47.548;18.828;2022-09-01T02:08:52;4.37;;;1.23;;
51238;SDS011;38154;47.548;18.828;2022-09-01T02:11:24;2.53;;;1.15;;
51238;SDS011;38154;47.548;18.828;2022-09-01T02:13:54;1.37;;;1.17;;
51238;SDS011;38154;47.548;18.828;2022-09-01T02:16:22;1.25;;;1.10;;
51238;SDS011;38154;47.548;18.828;2022-09-01T02:18:49;1.27;;;1.17;;
51238;SDS011;38154;47.548;18.828;2022-09-01T02:21:18;1.00;;;0.90;;
51238;SDS011;38154;47.548;18.828;2022-09-01T02:23:47;1.35;;;1.08;;
51238;SDS011;38154;47.548;18.828;2022-09-01T02:26:21;0.80;;;0.80;;
51238;SDS011;38154;47.548;18.828;2022-09-01T02:28:48;0.80;;;0.80;;
51238;SDS011;38154;47.548;18.828;2022-09-01T02:31:14;1.57;;;1.00;;
51238;SDS011;38154;47.548;18.828;2022-09-01T02:33:40;1.40;;;1.10;;
51238;SDS011;38154;47.548;18.828;2022-09-01T02:36:12;0.90;;;0.80;;
51238;SDS011;38154;47.548;18.828;2022-09-01T02:38:40;1.48;;;1.10;;
51238;SDS011;38154;47.548;18.828;2022-09-01T02:41:10;1.12;;;1.00;;
51238;SDS011;38154;47.548;18.828;2022-09-01T02:43:38;1.23;;;0.88;;
51238;SDS011;38154;47.548;18.828;2022-09-01T02:46:05;0.80;;;0.80;;
51238;SDS011;38154;47.548;18.828;2022-09-01T02:48:32;0.70;;;0.70;;
51238;SDS011;38154;47.548;18.828;2022-09-01T02:51:03;0.70;;;0.70;;
51238;SDS011;38154;47.548;18.828;2022-09-01T02:53:33;1.08;;;0.90;;
51238;SDS011;38154;47.548;18.828;2022-09-01T02:56:00;1.10;;;1.00;;
51238;SDS011;38154;47.548;18.828;2022-09-01T02:58:28;3.65;;;0.82;;
51238;SDS011;38154;47.548;18.828;2022-09-01T03:00:57;0.50;;;0.50;;
51238;SDS011;38154;47.548;18.828;2022-09-01T03:03:23;1.83;;;0.83;;
51238;SDS011;38154;47.548;18.828;2022-09-01T03:05:50;0.88;;;0.80;;
51238;SDS011;38154;47.548;18.828;2022-09-01T03:08:23;1.37;;;0.90;;
51238;SDS011;38154;47.548;18.828;2022-09-01T03:10:50;0.90;;;0.75;;
51238;SDS011;38154;47.548;18.828;2022-09-01T03:13:20;0.60;;;0.60;;
51238;SDS011;38154;47.548;18.828;2022-09-01T03:15:48;0.77;;;0.77;;
51238;SDS011;38154;47.548;18.828;2022-09-01T03:18:15;1.20;;;1.10;;
51238;SDS011;38154;47.548;18.828;2022-09-01T03:20:43;2.53;;;1.10;;
51238;SDS011;38154;47.548;18.828;2022-09-01T03:23:15;0.68;;;0.68;;
51238;SDS011;38154;47.548;18.828;2022-09-01T03:25:43;1.70;;;1.05;;
51238;SDS011;38154;47.548;18.828;2022-09-01T03:28:11;1.33;;;1.23;;
51238;SDS011;38154;47.548;18.828;2022-09-01T03:30:44;0.90;;;0.90;;
51238;SDS011;38154;47.548;18.828;2022-09-01T03:33:13;0.62;;;0.62;;
51238;SDS011;38154;47.548;18.828;2022-09-01T03:35:41;4.15;;;1.15;;
51238;SDS011;38154;47.548;18.828;2022-09-01T03:38:08;1.33;;;0.88;;
51238;SDS011;38154;47.548;18.828;2022-09-01T03:40:37;1.17;;;0.90;;
51238;SDS011;38154;47.548;18.828;2022-09-01T03:43:05;1.12;;;1.00;;
51238;SDS011;38154;47.548;18.828;2022-09-01T03:45:38;1.42;;;1.02;;
51238;SDS011;38154;47.548;18.828;2022-09-01T03:48:06;0.95;;;0.90;;
51238;SDS011;38154;47.548;18.828;2022-09-01T03:50:38;1.45;;;0.77;;
51238;SDS011;38154;47.548;18.828;2022-09-01T03:53:10;1.73;;;0.98;;
51238;SDS011;38154;47.548;18.828;2022-09-01T03:55:38;3.05;;;1.02;;
51238;SDS011;38154;47.548;18.828;2022-09-01T04:00:34;1.17;;;1.08;;
51238;SDS011;38154;47.548;18.828;2022-09-01T04:03:03;2.78;;;1.10;;
51238;SDS011;38154;47.548;18.828;2022-09-01T04:05:32;0.80;;;0.80;;
51238;SDS011;38154;47.548;18.828;2022-09-01T04:08:03;0.70;;;0.70;;
51238;SDS011;38154;47.548;18.828;2022-09-01T04:10:31;3.62;;;0.90;;
51238;SDS011;38154;47.548;18.828;2022-09-01T04:13:00;3.05;;;1.37;;
51238;SDS011;38154;47.548;18.828;2022-09-01T04:15:26;3.62;;;1.00;;
51238;SDS011;38154;47.548;18.828;2022-09-01T04:17:53;0.90;;;0.90;;
51238;SDS011;38154;47.548;18.828;2022-09-01T04:20:37;0.60;;;0.60;;
51238;SDS011;38154;47.548;18.828;2022-09-01T04:23:19;0.90;;;0.80;;
51238;SDS011;38154;47.548;18.828;2022-09-01T04:25:52;1.45;;;1.00;;
51238;SDS011;38154;47.548;18.828;2022-09-01T04:28:40;1.37;;;1.00;;
51238;SDS011;38154;47.548;18.828;2022-09-01T04:31:11;1.02;;;0.95;;
51238;SDS011;38154;47.548;18.828;2022-09-01T04:33:42;3.78;;;1.08;;
51238;SDS011;38154;47.548;18.828;2022-09-01T04:36:29;1.35;;;1.05;;
51238;SDS011;38154;47.548;18.828;2022-09-01T04:38:59;0.70;;;0.70;;
51238;SDS011;38154;47.548;18.828;2022-09-01T04:41:27;1.58;;;1.20;;
51238;SDS011;38154;47.548;18.828;2022-09-01T04:43:57;0.60;;;0.60;;
51238;SDS011;38154;47.548;18.828;2022-09-01T04:46:29;2.28;;;1.02;;
51238;SDS011;38154;47.548;18.828;2022-09-01T04:49:01;2.22;;;1.30;;
51238;SDS011;38154;47.548;18.828;2022-09-01T04:51:42;1.17;;;1.08;;
51238;SDS011;38154;47.548;18.828;2022-09-01T04:54:10;1.58;;;1.02;;
51238;SDS011;38154;47.548;18.828;2022-09-01T04:56:39;1.25;;;1.00;;
51238;SDS011;38154;47.548;18.828;2022-09-01T04:59:08;0.80;;;0.80;;
51238;SDS011;38154;47.548;18.828;2022-09-01T05:01:35;1.10;;;0.95;;
51238;SDS011;38154;47.548;18.828;2022-09-01T05:04:08;1.95;;;1.55;;
51238;SDS011;38154;47.548;18.828;2022-09-01T05:06:38;1.60;;;1.08;;
51238;SDS011;38154;47.548;18.828;2022-09-01T05:09:08;1.10;;;1.05;;
51238;SDS011;38154;47.548;18.828;2022-09-01T05:11:38;1.02;;;0.90;;
51238;SDS011;38154;47.548;18.828;2022-09-01T05:14:04;2.08;;;1.37;;
51238;SDS011;38154;47.548;18.828;2022-09-01T05:16:31;0.93;;;0.90;;
51238;SDS011;38154;47.548;18.828;2022-09-01T05:18:58;2.03;;;1.40;;
51238;SDS011;38154;47.548;18.828;2022-09-01T05:21:26;3.33;;;1.50;;
51238;SDS011;38154;47.548;18.828;2022-09-01T05:23:54;1.75;;;1.05;;
51238;SDS011;38154;47.548;18.828;2022-09-01T05:26:23;3.53;;;0.90;;
51238;SDS011;38154;47.548;18.828;2022-09-01T05:28:53;3.28;;;1.40;;
51238;SDS011;38154;47.548;18.828;2022-09-01T05:31:28;0.82;;;0.82;;
51238;SDS011;38154;47.548;18.828;2022-09-01T05:34:02;0.70;;;0.70;;
51238;SDS011;38154;47.548;18.828;2022-09-01T05:36:29;0.80;;;0.80;;
51238;SDS011;38154;47.548;18.828;2022-09-01T05:38:58;1.02;;;0.93;;
51238;SDS011;38154;47.548;18.828;2022-09-01T05:41:26;1.45;;;0.98;;
51238;SDS011;38154;47.548;18.828;2022-09-01T05:43:52;1.05;;;0.90;;
51238;SDS011;38154;47.548;18.828;2022-09-01T05:46:20;1.90;;;1.10;;
51238;SDS011;38154;47.548;18.828;2022-09-01T05:48:48;1.20;;;1.10;;
51238;SDS011;38154;47.548;18.828;2022-09-01T05:51:20;1.05;;;1.00;;
51238;SDS011;38154;47.548;18.828;2022-09-01T05:53:48;0.60;;;0.55;;
51238;SDS011;38154;47.548;18.828;2022-09-01T05:56:19;1.27;;;0.88;;
51238;SDS011;38154;47.548;18.828;2022-09-01T05:58:45;2.47;;;1.00;;
51238;SDS011;38154;47.548;18.828;2022-09-01T06:01:19;0.98;;;0.98;;
51238;SDS011;38154;47.548;18.828;2022-09-01T06:03:51;1.42;;;1.05;;
51238;SDS011;38154;47.548;18.828;2022-09-01T06:06:20;0.93;;;0.93;;
51238;SDS011;38154;47.548;18.828;2022-09-01T06:08:50;1.70;;;0.80;;
51238;SDS011;38154;47.548;18.828;2022-09-01T06:13:43;0.85;;;0.80;;
51238;SDS011;38154;47.548;18.828;2022-09-01T06:16:14;1.40;;;1.20;;
51238;SDS011;38154;47.548;18.828;2022-09-01T06:18:42;1.35;;;1.02;;
51238;SDS011;38154;47.548;18.828;2022-09-01T06:21:09;1.42;;;1.10;;
51238;SDS011;38154;47.548;18.828;2022-09-01T06:23:43;1.12;;;0.95;;
51238;SDS011;38154;47.548;18.828;2022-09-01T06:26:16;0.82;;;0.82;;
51238;SDS011;38154;47.548;18.828;2022-09-01T06:28:43;1.58;;;1.30;;
51238;SDS011;38154;47.548;18.828;2022-09-01T06:31:09;1.20;;;1.10;;
51238;SDS011;38154;47.548;18.828;2022-09-01T06:33:37;1.37;;;0.93;;
51238;SDS011;38154;47.548;18.828;2022-09-01T06:38:29;1.17;;;1.00;;
51238;SDS011;38154;47.548;18.828;2022-09-01T06:41:03;2.08;;;1.12;;
51238;SDS011;38154;47.548;18.828;2022-09-01T06:43:40;1.95;;;1.30;;
51238;SDS011;38154;47.548;18.828;2022-09-01T06:46:07;1.17;;;1.08;;
51238;SDS011;38154;47.548;18.828;2022-09-01T06:48:34;1.15;;;0.90;;
51238;SDS011;38154;47.548;18.828;2022-09-01T06:51:04;1.52;;;1.42;;
51238;SDS011;38154;47.548;18.828;2022-09-01T06:53:33;2.45;;;0.88;;
51238;SDS011;38154;47.548;18.828;2022-09-01T06:55:59;1.50;;;0.90;;
51238;SDS011;38154;47.548;18.828;2022-09-01T06:58:27;3.33;;;1.15;;
51238;SDS011;38154;47.548;18.828;2022-09-01T07:03:19;3.35;;;0.75;;
51238;SDS011;38154;47.548;18.828;2022-09-01T07:05:48;1.27;;;1.10;;
51238;SDS011;38154;47.548;18.828;2022-09-01T07:08:15;0.95;;;0.90;;
51238;SDS011;38154;47.548;18.828;2022-09-01T07:10:47;1.20;;;0.90;;
51238;SDS011;38154;47.548;18.828;2022-09-01T07:13:17;0.65;;;0.60;;
51238;SDS011;38154;47.548;18.828;2022-09-01T07:15:49;1.20;;;1.08;;
51238;SDS011;38154;47.548;18.828;2022-09-01T07:18:16;1.27;;;0.90;;
51238;SDS011;38154;47.548;18.828;2022-09-01T07:20:43;1.85;;;1.25;;
51238;SDS011;38154;47.548;18.828;2022-09-01T07:23:11;1.05;;;0.93;;
51238;SDS011;38154;47.548;18.828;2022-09-01T07:25:38;1.30;;;0.77;;
51238;SDS011;38154;47.548;18.828;2022-09-01T07:28:07;2.15;;;0.85;;
51238;SDS011;38154;47.548;18.828;2022-09-01T07:30:33;0.98;;;0.95;;
51238;SDS011;38154;47.548;18.828;2022-09-01T07:33:06;0.88;;;0.88;;
51238;SDS011;38154;47.548;18.828;2022-09-01T07:35:36;0.77;;;0.77;;
51238;SDS011;38154;47.548;18.828;2022-09-01T07:38:04;1.85;;;1.00;;
51238;SDS011;38154;47.548;18.828;2022-09-01T07:40:32;1.98;;;1.02;;
51238;SDS011;38154;47.548;18.828;2022-09-01T07:43:06;1.40;;;0.77;;
51238;SDS011;38154;47.548;18.828;2022-09-01T07:45:40;0.98;;;0.70;;
51238;SDS011;38154;47.548;18.828;2022-09-01T07:48:14;0.62;;;0.50;;
51238;SDS011;38154;47.548;18.828;2022-09-01T07:50:46;1.60;;;0.82;;
51238;SDS011;38154;47.548;18.828;2022-09-01T07:53:14;1.25;;;0.70;;
51238;SDS011;38154;47.548;18.828;2022-09-01T07:55:45;0.93;;;0.88;;
51238;SDS011;38154;47.548;18.828;2022-09-01T07:58:14;1.60;;;1.00;;
51238;SDS011;38154;47.548;18.828;2022-09-01T08:00:40;1.25;;;1.00;;
51238;SDS011;38154;47.548;18.828;2022-09-01T08:03:10;1.37;;;0.80;;
51238;SDS011;38154;47.548;18.828;2022-09-01T08:08:03;1.02;;;1.00;;
51238;SDS011;38154;47.548;18.828;2022-09-01T08:10:29;4.37;;;1.05;;
51238;SDS011;38154;47.548;18.828;2022-09-01T08:12:55;3.70;;;1.30;;
51238;SDS011;38154;47.548;18.828;2022-09-01T08:15:21;1.05;;;0.98;;
51238;SDS011;38154;47.548;18.828;2022-09-01T08:17:48;1.05;;;0.90;;
51238;SDS011;38154;47.548;18.828;2022-09-01T08:20:14;0.82;;;0.80;;
51238;SDS011;38154;47.548;18.828;2022-09-01T08:22:40;1.92;;;1.02;;
51238;SDS011;38154;47.548;18.828;2022-09-01T08:25:06;1.65;;;0.93;;
51238;SDS011;38154;47.548;18.828;2022-09-01T08:27:34;2.05;;;1.20;;
51238;SDS011;38154;47.548;18.828;2022-09-01T08:30:04;0.98;;;0.90;;
51238;SDS011;38154;47.548;18.828;2022-09-01T08:32:33;1.52;;;1.02;;
51238;SDS011;38154;47.548;18.828;2022-09-01T08:34:59;4.72;;;1.10;;
51238;SDS011;38154;47.548;18.828;2022-09-01T08:37:26;2.67;;;1.08;;
51238;SDS011;38154;47.548;18.828;2022-09-01T08:39:52;3.03;;;0.90;;
51238;SDS011;38154;47.548;18.828;2022-09-01T08:45:03;2.03;;;0.82;;
51238;SDS011;38154;47.548;18.828;2022-09-01T08:47:44;2.37;;;1.12;;
51238;SDS011;38154;47.548;18.828;2022-09-01T08:50:10;2.92;;;1.25;;
51238;SDS011;38154;47.548;18.828;2022-09-01T08:55:46;1.95;;;1.15;;
51238;SDS011;38154;47.548;18.828;2022-09-01T08:58:16;0.85;;;0.85;;
51238;SDS011;38154;47.548;18.828;2022-09-01T09:00:43;1.42;;;0.98;;
51238;SDS011;38154;47.548;18.828;2022-09-01T09:17:14;1.00;;;0.90;;
51238;SDS011;38154;47.548;18.828;2022-09-01T09:19:43;4.43;;;1.00;;
51238;SDS011;38154;47.548;18.828;2022-09-01T09:22:11;1.10;;;1.00;;
51238;SDS011;38154;47.548;18.828;2022-09-01T09:41:06;0.60;;;0.60;;
51238;SDS011;38154;47.548;18.828;2022-09-01T09:43:43;1.30;;;0.52;;
51238;SDS011;38154;47.548;18.828;2022-09-01T09:46:23;0.65;;;0.57;;
51238;SDS011;38154;47.548;18.828;2022-09-01T09:49:05;1.65;;;0.62;;
51238;SDS011;38154;47.548;18.828;2022-09-01T09:51:41;1.05;;;0.68;;
51238;SDS011;38154;47.548;18.828;2022-09-01T09:54:12;0.30;;;0.30;;
51238;SDS011;38154;47.548;18.828;2022-09-01T09:56:42;2.10;;;0.50;;
51238;SDS011;38154;47.548;18.828;2022-09-01T10:01:57;1.15;;;0.70;;
51238;SDS011;38154;47.548;18.828;2022-09-01T10:04:35;0.60;;;0.43;;
51238;SDS011;38154;47.548;18.828;2022-09-01T10:07:21;3.45;;;0.40;;
51238;SDS011;38154;47.548;18.828;2022-09-01T10:09:49;0.35;;;0.35;;
51238;SDS011;38154;47.548;18.828;2022-09-01T10:12:19;0.50;;;0.40;;
51238;SDS011;38154;47.548;18.828;2022-09-01T10:14:47;0.45;;;0.40;;
51238;SDS011;38154;47.548;18.828;2022-09-01T10:17:37;0.35;;;0.30;;
51238;SDS011;38154;47.548;18.828;2022-09-01T10:20:08;0.70;;;0.40;;
51238;SDS011;38154;47.548;18.828;2022-09-01T10:22:41;0.52;;;0.50;;
51238;SDS011;38154;47.548;18.828;2022-09-01T10:25:08;0.52;;;0.50;;
51238;SDS011;38154;47.548;18.828;2022-09-01T10:27:40;1.55;;;0.55;;
51238;SDS011;38154;47.548;18.828;2022-09-01T10:30:11;0.68;;;0.40;;
51238;SDS011;38154;47.548;18.828;2022-09-01T10:32:41;0.40;;;0.35;;
51238;SDS011;38154;47.548;18.828;2022-09-01T10:35:17;0.47;;;0.40;;
51238;SDS011;38154;47.548;18.828;2022-09-01T10:37:48;1.00;;;0.43;;
51238;SDS011;38154;47.548;18.828;2022-09-01T10:42:44;1.45;;;0.45;;
51238;SDS011;38154;47.548;18.828;2022-09-01T10:45:17;0.32;;;0.32;;
51238;SDS011;38154;47.548;18.828;2022-09-01T10:50:49;0.47;;;0.37;;
51238;SDS011;38154;47.548;18.828;2022-09-01T10:56:08;0.68;;;0.50;;
51238;SDS011;38154;47.548;18.828;2022-09-01T11:04:11;0.75;;;0.35;;
51238;SDS011;38154;47.548;18.828;2022-09-01T11:06:55;1.58;;;0.45;;
51238;SDS011;38154;47.548;18.828;2022-09-01T11:14:48;0.37;;;0.37;;
51238;SDS011;38154;47.548;18.828;2022-09-01T11:17:21;0.98;;;0.45;;
51238;SDS011;38154;47.548;18.828;2022-09-01T11:23:01;2.15;;;0.50;;
51238;SDS011;38154;47.548;18.828;2022-09-01T11:30:46;0.68;;;0.50;;
51238;SDS011;38154;47.548;18.828;2022-09-01T11:38:49;1.05;;;0.32;;
51238;SDS011;38154;47.548;18.828;2022-09-01T11:41:20;0.50;;;0.40;;
51238;SDS011;38154;47.548;18.828;2022-09-01T11:43:49;0.30;;;0.30;;
51238;SDS011;38154;47.548;18.828;2022-09-01T11:46:24;2.75;;;0.40;;
51238;SDS011;38154;47.548;18.828;2022-09-01T11:48:52;0.43;;;0.28;;
51238;SDS011;38154;47.548;18.828;2022-09-01T11:51:20;1.27;;;0.43;;
51238;SDS011;38154;47.548;18.828;2022-09-01T11:53:46;1.48;;;0.43;;
51238;SDS011;38154;47.548;18.828;2022-09-01T11:58:37;0.50;;;0.50;;
51238;SDS011;38154;47.548;18.828;2022-09-01T12:01:11;3.03;;;0.50;;
51238;SDS011;38154;47.548;18.828;2022-09-01T12:03:39;0.50;;;0.50;;
51238;SDS011;38154;47.548;18.828;2022-09-01T12:06:07;0.47;;;0.47;;
51238;SDS011;38154;47.548;18.828;2022-09-01T12:08:37;1.00;;;0.60;;
51238;SDS011;38154;47.548;18.828;2022-09-01T12:13:36;0.40;;;0.40;;
51238;SDS011;38154;47.548;18.828;2022-09-01T12:16:04;0.50;;;0.50;;
51238;SDS011;38154;47.548;18.828;2022-09-01T12:18:36;0.40;;;0.40;;
51238;SDS011;38154;47.548;18.828;2022-09-01T12:21:29;0.50;;;0.40;;
51238;SDS011;38154;47.548;18.828;2022-09-01T12:24:12;1.75;;;0.50;;
51238;SDS011;38154;47.548;18.828;2022-09-01T12:26:42;0.37;;;0.35;;
51238;SDS011;38154;47.548;18.828;2022-09-01T12:29:10;0.40;;;0.40;;
51238;SDS011;38154;47.548;18.828;2022-09-01T12:31:41;0.40;;;0.40;;
51238;SDS011;38154;47.548;18.828;2022-09-01T12:34:25;0.85;;;0.50;;
51238;SDS011;38154;47.548;18.828;2022-09-01T12:39:42;0.57;;;0.57;;
51238;SDS011;38154;47.548;18.828;2022-09-01T12:52:33;0.77;;;0.73;;
51238;SDS011;38154;47.548;18.828;2022-09-01T12:57:28;1.02;;;0.60;;
51238;SDS011;38154;47.548;18.828;2022-09-01T13:02:38;0.52;;;0.52;;
51238;SDS011;38154;47.548;18.828;2022-09-01T13:05:22;1.60;;;0.85;;
51238;SDS011;38154;47.548;18.828;2022-09-01T13:07:54;0.45;;;0.45;;
51238;SDS011;38154;47.548;18.828;2022-09-01T13:10:21;0.43;;;0.30;;
51238;SDS011;38154;47.548;18.828;2022-09-01T13:12:49;1.02;;;0.50;;
51238;SDS011;38154;47.548;18.828;2022-09-01T13:17:42;0.85;;;0.50;;
51238;SDS011;38154;47.548;18.828;2022-09-01T13:20:08;4.47;;;0.62;;
51238;SDS011;38154;47.548;18.828;2022-09-01T13:22:35;2.75;;;0.60;;
51238;SDS011;38154;47.548;18.828;2022-09-01T13:25:03;1.83;;;0.75;;
51238;SDS011;38154;47.548;18.828;2022-09-01T13:27:29;1.77;;;0.62;;
51238;SDS011;38154;47.548;18.828;2022-09-01T13:29:55;0.88;;;0.60;;
51238;SDS011;38154;47.548;18.828;2022-09-01T13:32:22;0.32;;;0.30;;
51238;SDS011;38154;47.548;18.828;2022-09-01T13:34:48;0.50;;;0.50;;
51238;SDS011;38154;47.548;18.828;2022-09-01T13:37:16;0.55;;;0.30;;
51238;SDS011;38154;47.548;18.828;2022-09-01T13:39:42;0.45;;;0.45;;
51238;SDS011;38154;47.548;18.828;2022-09-01T13:42:08;0.37;;;0.37;;
51238;SDS011;38154;47.548;18.828;2022-09-01T13:44:34;0.40;;;0.40;;
51238;SDS011;38154;47.548;18.828;2022-09-01T13:47:00;0.45;;;0.40;;
51238;SDS011;38154;47.548;18.828;2022-09-01T13:49:26;0.47;;;0.47;;
51238;SDS011;38154;47.548;18.828;2022-09-01T13:51:52;0.77;;;0.50;;
51238;SDS011;38154;47.548;18.828;2022-09-01T13:54:18;0.35;;;0.35;;
51238;SDS011;38154;47.548;18.828;2022-09-01T13:56:45;0.50;;;0.40;;
51238;SDS011;38154;47.548;18.828;2022-09-01T13:59:11;0.50;;;0.50;;
51238;SDS011;38154;47.548;18.828;2022-09-01T14:01:37;0.50;;;0.50;;
51238;SDS011;38154;47.548;18.828;2022-09-01T14:04:05;0.75;;;0.47;;
51238;SDS011;38154;47.548;18.828;2022-09-01T14:06:31;0.37;;;0.30;;
51238;SDS011;38154;47.548;18.828;2022-09-01T14:08:57;0.82;;;0.30;;
51238;SDS011;38154;47.548;18.828;2022-09-01T14:11:23;0.50;;;0.50;;
51238;SDS011;38154;47.548;18.828;2022-09-01T14:13:51;2.55;;;0.40;;
51238;SDS011;38154;47.548;18.828;2022-09-01T14:18:43;0.40;;;0.40;;
51238;SDS011;38154;47.548;18.828;2022-09-01T14:21:09;1.15;;;0.40;;
51238;SDS011;38154;47.548;18.828;2022-09-01T14:23:38;0.50;;;0.35;;
51238;SDS011;38154;47.548;18.828;2022-09-01T14:26:06;0.85;;;0.70;;
51238;SDS011;38154;47.548;18.828;2022-09-01T14:28:34;1.17;;;0.80;;
51238;SDS011;38154;47.548;18.828;2022-09-01T14:31:00;1.90;;;0.85;;
51238;SDS011;38154;47.548;18.828;2022-09-01T14:33:30;0.70;;;0.70;;
51238;SDS011;38154;47.548;18.828;2022-09-01T14:35:55;0.60;;;0.45;;
51238;SDS011;38154;47.548;18.828;2022-09-01T14:38:22;0.37;;;0.30;;
51238;SDS011;38154;47.548;18.828;2022-09-01T14:40:49;0.75;;;0.60;;
51238;SDS011;38154;47.548;18.828;2022-09-01T14:43:17;1.70;;;1.00;;
51238;SDS011;38154;47.548;18.828;2022-09-01T14:48:11;1.80;;;0.90;;
51238;SDS011;38154;47.548;18.828;2022-09-01T14:50:39;1.20;;;0.90;;
51238;SDS011;38154;47.548;18.828;2022-09-01T14:53:10;1.33;;;1.23;;
51238;SDS011;38154;47.548;18.828;2022-09-01T14:55:37;1.17;;;1.00;;
51238;SDS011;38154;47.548;18.828;2022-09-01T14:58:03;0.98;;;0.80;;
51238;SDS011;38154;47.548;18.828;2022-09-01T15:00:30;2.40;;;1.00;;
51238;SDS011;38154;47.548;18.828;2022-09-01T15:02:59;1.02;;;0.65;;
51238;SDS011;38154;47.548;18.828;2022-09-01T15:05:25;1.55;;;1.15;;
51238;SDS011;38154;47.548;18.828;2022-09-01T15:07:52;1.58;;;1.30;;
51238;SDS011;38154;47.548;18.828;2022-09-01T15:10:19;0.90;;;0.90;;
51238;SDS011;38154;47.548;18.828;2022-09-01T15:12:47;1.77;;;1.33;;
51238;SDS011;38154;47.548;18.828;2022-09-01T15:15:14;1.15;;;0.70;;
51238;SDS011;38154;47.548;18.828;2022-09-01T15:17:40;0.90;;;0.90;;
51238;SDS011;38154;47.548;18.828;2022-09-01T15:20:07;1.17;;;0.68;;
51238;SDS011;38154;47.548;18.828;2022-09-01T15:22:52;0.93;;;0.80;;
51238;SDS011;38154;47.548;18.828;2022-09-01T15:25:18;3.00;;;1.05;;
51238;SDS011;38154;47.548;18.828;2022-09-01T15:30:11;10.65;;;1.27;;
51238;SDS011;38154;47.548;18.828;2022-09-01T15:32:40;1.08;;;0.98;;
51238;SDS011;38154;47.548;18.828;2022-09-01T15:37:32;1.77;;;1.02;;
51238;SDS011;38154;47.548;18.828;2022-09-01T15:39:59;0.80;;;0.80;;
51238;SDS011;38154;47.548;18.828;2022-09-01T15:42:25;0.95;;;0.85;;
51238;SDS011;38154;47.548;18.828;2022-09-01T15:44:51;0.75;;;0.75;;
51238;SDS011;38154;47.548;18.828;2022-09-01T15:47:17;1.50;;;0.90;;
51238;SDS011;38154;47.548;18.828;2022-09-01T15:49:43;5.12;;;1.37;;
51238;SDS011;38154;47.548;18.828;2022-09-01T15:52:09;2.00;;;1.27;;
51238;SDS011;38154;47.548;18.828;2022-09-01T15:54:38;1.23;;;0.95;;
51238;SDS011;38154;47.548;18.828;2022-09-01T15:57:04;1.40;;;0.88;;
51238;SDS011;38154;47.548;18.828;2022-09-01T15:59:30;0.80;;;0.80;;
51238;SDS011;38154;47.548;18.828;2022-09-01T16:01:57;1.58;;;1.00;;
51238;SDS011;38154;47.548;18.828;2022-09-01T16:04:23;0.75;;;0.75;;
51238;SDS011;38154;47.548;18.828;2022-09-01T16:06:49;2.58;;;0.80;;
51238;SDS011;38154;47.548;18.828;2022-09-01T16:09:16;2.20;;;1.02;;
51238;SDS011;38154;47.548;18.828;2022-09-01T16:11:43;2.80;;;1.10;;
51238;SDS011;38154;47.548;18.828;2022-09-01T16:14:09;1.27;;;0.88;;
51238;SDS011;38154;47.548;18.828;2022-09-01T16:24:59;1.40;;;0.90;;
51238;SDS011;38154;47.548;18.828;2022-09-01T16:27:31;0.85;;;0.82;;
51238;SDS011;38154;47.548;18.828;2022-09-01T16:30:03;1.45;;;0.68;;
51238;SDS011;38154;47.548;18.828;2022-09-01T16:32:33;1.08;;;0.98;;
51238;SDS011;38154;47.548;18.828;2022-09-01T16:35:00;0.90;;;0.90;;
51238;SDS011;38154;47.548;18.828;2022-09-01T16:43:55;1.40;;;1.10;;
51238;SDS011;38154;47.548;18.828;2022-09-01T16:46:34;2.35;;;1.23;;
51238;SDS011;38154;47.548;18.828;2022-09-01T16:52:26;2.47;;;1.15;;
51238;SDS011;38154;47.548;18.828;2022-09-01T16:57:56;4.60;;;1.10;;
51238;SDS011;38154;47.548;18.828;2022-09-01T17:00:34;1.70;;;1.20;;
51238;SDS011;38154;47.548;18.828;2022-09-01T17:03:14;1.98;;;1.23;;
51238;SDS011;38154;47.548;18.828;2022-09-01T17:05:56;1.52;;;0.85;;
51238;SDS011;38154;47.548;18.828;2022-09-01T17:08:31;1.62;;;1.23;;
51238;SDS011;38154;47.548;18.828;2022-09-01T17:11:07;1.67;;;1.27;;
51238;SDS011;38154;47.548;18.828;2022-09-01T17:13:44;1.27;;;1.12;;
51238;SDS011;38154;47.548;18.828;2022-09-01T17:16:17;1.75;;;0.95;;
51238;SDS011;38154;47.548;18.828;2022-09-01T17:18:58;2.90;;;1.20;;